createdAt,value
2023-11-29T00:00:32.410Z,-1.10
2023-11-29T00:03:00.037Z,-1.20
2023-11-29T00:05:33.270Z,-1.10
2023-11-29T00:08:07.989Z,-1.20
2023-11-29T00:10:35.161Z,-1.20
2023-11-29T00:13:10.064Z,-1.30
2023-11-29T00:15:37.194Z,-1.20
2023-11-29T00:18:04.621Z,-1.30
2023-11-29T00:20:31.990Z,-1.40
2023-11-29T00:22:59.178Z,-1.40
2023-11-29T00:25:26.309Z,-1.50
2023-11-29T00:27:53.396Z,-1.40
2023-11-29T00:30:21.337Z,-1.40
2023-11-29T00:32:48.447Z,-1.40
2023-11-29T00:35:15.788Z,-1.30
2023-11-29T00:37:42.828Z,-1.30
2023-11-29T00:40:10.657Z,-1.30
2023-11-29T00:42:37.741Z,-1.40
2023-11-29T00:45:05.454Z,-1.40
2023-11-29T00:47:32.496Z,-1.50
2023-11-29T00:49:59.637Z,-1.50
2023-11-29T00:52:26.640Z,-1.40
2023-11-29T00:54:53.654Z,-1.40
2023-11-29T00:57:21.337Z,-1.30
2023-11-29T00:59:49.127Z,-1.30
2023-11-29T01:02:17.352Z,-1.30
2023-11-29T01:04:44.391Z,-1.30
2023-11-29T01:07:11.584Z,-1.40
2023-11-29T01:09:38.872Z,-1.40
2023-11-29T01:12:06.168Z,-1.50
2023-11-29T01:14:33.300Z,-1.50
2023-11-29T01:17:00.802Z,-1.50
2023-11-29T01:19:27.861Z,-1.30
2023-11-29T01:21:54.846Z,-1.30
2023-11-29T01:24:21.900Z,-1.30
2023-11-29T01:26:48.973Z,-1.30
2023-11-29T01:29:16.051Z,-1.20
2023-11-29T01:31:43.112Z,-1.30
2023-11-29T01:34:10.165Z,-1.30
2023-11-29T01:36:44.270Z,-1.30
2023-11-29T01:39:15.523Z,-1.30
2023-11-29T01:41:43.562Z,-1.20
2023-11-29T01:44:11.036Z,-1.30
2023-11-29T01:46:38.722Z,-1.30
2023-11-29T01:49:07.153Z,-1.40
2023-11-29T01:51:34.578Z,-1.40
2023-11-29T01:54:04.269Z,-1.60
2023-11-29T01:56:31.379Z,-1.60
2023-11-29T01:58:58.406Z,-1.60
2023-11-29T02:01:25.695Z,-1.50
2023-11-29T02:03:53.506Z,-1.40
2023-11-29T02:06:21.500Z,-1.40
2023-11-29T02:08:48.847Z,-1.40
2023-11-29T02:11:20.237Z,-1.40
2023-11-29T02:13:47.354Z,-1.50
2023-11-29T02:16:14.438Z,-1.60
2023-11-29T02:18:41.514Z,-1.50
2023-11-29T02:21:08.707Z,-1.40
2023-11-29T02:23:55.171Z,-1.30
2023-11-29T02:26:22.410Z,-1.30
2023-11-29T02:28:49.662Z,-1.40
2023-11-29T02:31:16.824Z,-1.30
2023-11-29T02:33:44.015Z,-1.20
2023-11-29T02:36:11.239Z,-1.20
2023-11-29T02:38:38.624Z,-1.20
2023-11-29T02:41:06.167Z,-1.20
2023-11-29T02:43:33.816Z,-1.10
2023-11-29T02:46:01.105Z,-1.20
2023-11-29T02:48:28.551Z,-1.20
2023-11-29T02:50:55.774Z,-1.20
2023-11-29T02:53:22.898Z,-1.20
2023-11-29T02:55:49.950Z,-1.20
2023-11-29T02:58:17.118Z,-1.20
2023-11-29T03:00:44.147Z,-1.10
2023-11-29T03:03:11.249Z,-1.00
2023-11-29T03:05:38.270Z,-1.20
2023-11-29T03:08:05.658Z,-1.30
2023-11-29T03:10:33.960Z,-1.30
2023-11-29T03:13:01.779Z,-1.20
2023-11-29T03:15:28.914Z,-1.20
2023-11-29T03:17:56.130Z,-1.20
2023-11-29T03:20:23.172Z,-1.20
2023-11-29T03:22:50.192Z,-1.10
2023-11-29T03:25:17.235Z,-1.00
2023-11-29T03:27:44.208Z,-1.00
2023-11-29T03:30:12.232Z,-1.00
2023-11-29T03:32:39.387Z,-1.00
2023-11-29T03:35:07.223Z,-1.00
2023-11-29T03:37:34.389Z,-1.10
2023-11-29T03:40:01.465Z,-1.00
2023-11-29T03:42:30.863Z,-1.10
2023-11-29T03:44:57.890Z,-1.10
2023-11-29T03:47:27.281Z,-1.20
2023-11-29T03:49:54.298Z,-1.10
2023-11-29T03:52:23.376Z,-1.20
2023-11-29T03:54:50.577Z,-1.20
2023-11-29T03:57:19.996Z,-1.20
2023-11-29T03:59:49.781Z,-1.10
2023-11-29T04:02:17.199Z,-1.10
2023-11-29T04:04:44.506Z,-1.20
2023-11-29T04:07:13.405Z,-1.10
2023-11-29T04:09:46.381Z,-1.10
2023-11-29T04:12:14.680Z,-1.10
2023-11-29T04:14:41.971Z,-1.10
2023-11-29T04:17:09.145Z,-1.20
2023-11-29T04:19:36.905Z,-1.20
2023-11-29T04:22:04.014Z,-1.30
2023-11-29T04:24:31.090Z,-1.30
2023-11-29T04:26:58.130Z,-1.30
2023-11-29T04:29:27.416Z,-1.40
2023-11-29T04:31:55.407Z,-1.30
2023-11-29T04:34:28.527Z,-1.30
2023-11-29T04:37:19.872Z,-1.40
2023-11-29T04:39:47.080Z,-1.30
2023-11-29T04:42:14.078Z,-1.30
2023-11-29T04:44:41.123Z,-1.30
2023-11-29T04:47:08.291Z,-1.30
2023-11-29T04:49:35.550Z,-1.20
2023-11-29T04:52:02.990Z,-1.20
2023-11-29T04:54:30.101Z,-1.10
2023-11-29T04:56:57.137Z,-1.10
2023-11-29T04:59:24.269Z,-1.20
2023-11-29T05:01:52.746Z,-1.30
2023-11-29T05:04:20.459Z,-1.20
2023-11-29T05:06:48.253Z,-1.20
2023-11-29T05:09:16.049Z,-1.20
2023-11-29T05:11:43.771Z,-1.10
2023-11-29T05:14:11.924Z,-1.10
2023-11-29T05:16:39.918Z,-1.10
2023-11-29T05:19:07.379Z,-1.10
2023-11-29T05:21:34.749Z,-1.10
2023-11-29T05:24:01.768Z,-1.10
2023-11-29T05:26:28.910Z,-1.10
2023-11-29T05:28:55.983Z,-1.10
2023-11-29T05:31:23.058Z,-1.20
2023-11-29T05:33:50.965Z,-1.20
2023-11-29T05:36:20.412Z,-1.20
2023-11-29T05:38:47.735Z,-1.20
2023-11-29T05:41:16.576Z,-1.20
2023-11-29T05:43:43.664Z,-1.20
2023-11-29T05:46:11.117Z,-1.20
2023-11-29T05:48:40.651Z,-1.20
2023-11-29T05:51:07.781Z,-1.20
2023-11-29T05:53:35.175Z,-1.20
2023-11-29T05:56:02.311Z,-1.40
2023-11-29T05:58:29.443Z,-1.30
2023-11-29T06:00:56.543Z,-1.30
2023-11-29T06:03:27.062Z,-1.30
2023-11-29T06:05:56.756Z,-1.30
2023-11-29T06:08:23.900Z,-1.40
2023-11-29T06:10:50.851Z,-1.40
2023-11-29T06:13:21.290Z,-1.50
2023-11-29T06:15:48.343Z,-1.50
2023-11-29T06:18:16.815Z,-1.50
2023-11-29T06:20:44.028Z,-1.50
2023-11-29T06:23:11.265Z,-1.50
2023-11-29T06:25:38.400Z,-1.40
2023-11-29T06:28:05.635Z,-1.50
2023-11-29T06:30:32.870Z,-1.50
2023-11-29T06:33:00.000Z,-1.50
2023-11-29T06:35:27.303Z,-1.50
2023-11-29T06:37:59.612Z,-1.50
2023-11-29T06:40:29.959Z,-1.60
2023-11-29T06:42:57.403Z,-1.60
2023-11-29T06:48:41.059Z,-1.60
2023-11-29T06:51:08.192Z,-1.50
2023-11-29T06:53:40.166Z,-1.50
2023-11-29T06:56:08.301Z,-1.50
2023-11-29T06:58:39.053Z,-1.40
2023-11-29T07:01:12.547Z,-1.50
2023-11-29T07:03:40.582Z,-1.40
2023-11-29T07:06:08.572Z,-1.30
2023-11-29T07:08:35.676Z,-1.20
2023-11-29T07:11:05.741Z,-1.10
2023-11-29T07:13:33.059Z,-1.10
2023-11-29T07:16:00.228Z,-1.00
2023-11-29T07:18:27.585Z,-1.00
2023-11-29T07:20:54.665Z,-0.70
2023-11-29T07:23:23.680Z,-0.70
2023-11-29T07:25:53.313Z,-0.60
2023-11-29T07:28:20.253Z,-0.60
2023-11-29T07:30:47.249Z,-0.60
2023-11-29T07:33:14.618Z,-0.40
2023-11-29T07:35:41.739Z,-0.20
2023-11-29T07:38:08.995Z,-0.20
2023-11-29T07:40:37.936Z,-0.50
2023-11-29T07:43:04.945Z,-0.50
2023-11-29T07:45:32.002Z,-0.80
2023-11-29T07:48:06.539Z,-0.80
2023-11-29T07:50:33.693Z,-0.80
2023-11-29T07:53:00.805Z,-0.80
2023-11-29T07:55:28.067Z,-0.80
2023-11-29T07:57:55.070Z,-0.70
2023-11-29T08:00:22.351Z,-0.70
2023-11-29T08:02:49.482Z,-0.60
2023-11-29T08:05:16.782Z,-0.50
2023-11-29T08:07:43.936Z,-0.10
2023-11-29T08:10:11.033Z,0.20
2023-11-29T08:12:38.073Z,0.30
2023-11-29T08:15:06.067Z,0.30
2023-11-29T08:17:34.037Z,0.30
2023-11-29T08:20:05.952Z,0.10
2023-11-29T08:22:42.098Z,0.10
2023-11-29T08:25:13.977Z,0.10
2023-11-29T08:27:41.045Z,-0.30
2023-11-29T08:30:08.926Z,-0.20
2023-11-29T08:32:36.607Z,-0.20
2023-11-29T08:35:05.309Z,-0.20
2023-11-29T08:37:32.423Z,-0.10
2023-11-29T08:40:01.043Z,0.00
2023-11-29T08:42:28.104Z,0.00
2023-11-29T08:44:55.381Z,-0.10
2023-11-29T08:47:22.481Z,0.00
2023-11-29T08:49:49.510Z,0.00
2023-11-29T08:52:16.619Z,0.00
2023-11-29T08:54:45.121Z,-0.10
2023-11-29T08:57:12.180Z,0.00
2023-11-29T08:59:39.341Z,-0.10
2023-11-29T09:02:06.444Z,0.00
2023-11-29T09:04:38.275Z,0.00
2023-11-29T09:07:06.940Z,0.00
2023-11-29T09:09:34.065Z,0.00
2023-11-29T09:12:01.266Z,0.00
2023-11-29T09:14:28.463Z,0.00
2023-11-29T09:16:55.731Z,0.10
2023-11-29T09:19:23.234Z,0.10
2023-11-29T09:21:50.381Z,0.00
2023-11-29T09:24:17.344Z,0.00
2023-11-29T09:26:44.969Z,0.00
2023-11-29T09:29:12.005Z,0.00
2023-11-29T09:31:40.437Z,0.10
2023-11-29T09:34:07.494Z,0.10
2023-11-29T09:36:34.691Z,0.10
2023-11-29T09:39:09.225Z,0.00
2023-11-29T09:41:36.277Z,0.00
2023-11-29T09:44:06.710Z,0.00
2023-11-29T09:46:33.752Z,0.00
2023-11-29T09:49:01.986Z,0.00
2023-11-29T09:51:29.072Z,0.00
2023-11-29T09:53:56.131Z,0.00
2023-11-29T09:56:23.235Z,0.00
2023-11-29T09:58:53.466Z,0.00
2023-11-29T10:01:23.058Z,0.00
2023-11-29T10:04:09.758Z,0.00
2023-11-29T10:06:38.114Z,0.10
2023-11-29T10:09:14.108Z,0.20
2023-11-29T10:11:42.771Z,0.10
2023-11-29T10:14:12.014Z,0.10
2023-11-29T10:16:39.059Z,0.20
2023-11-29T10:19:11.341Z,0.30
2023-11-29T10:21:46.537Z,0.30
2023-11-29T10:24:25.900Z,0.30
2023-11-29T10:26:53.749Z,0.50
2023-11-29T10:29:20.843Z,0.70
2023-11-29T10:31:48.522Z,0.70
2023-11-29T10:34:16.931Z,1.00
2023-11-29T10:36:50.072Z,1.20
2023-11-29T10:39:24.278Z,1.40
2023-11-29T10:41:58.822Z,1.50
2023-11-29T10:44:42.745Z,1.70
2023-11-29T10:47:32.293Z,1.80
2023-11-29T10:50:08.042Z,2.20
2023-11-29T10:52:35.213Z,2.30
2023-11-29T10:55:03.340Z,2.00
2023-11-29T10:57:59.259Z,3.80
2023-11-29T11:00:31.079Z,6.50
2023-11-29T11:02:58.393Z,5.90
2023-11-29T11:05:26.517Z,7.10
2023-11-29T11:07:54.363Z,7.10
2023-11-29T11:10:27.579Z,7.20
2023-11-29T11:12:57.435Z,7.40
2023-11-29T11:15:26.041Z,7.70
2023-11-29T11:18:19.603Z,7.60
2023-11-29T11:20:59.914Z,7.60
2023-11-29T11:23:28.218Z,8.00
2023-11-29T11:26:08.533Z,8.60
2023-11-29T11:28:38.619Z,9.10
2023-11-29T11:31:11.097Z,10.50
2023-11-29T11:33:53.691Z,10.00
2023-11-29T11:36:25.373Z,8.90
2023-11-29T11:38:53.437Z,8.40
2023-11-29T11:41:20.695Z,9.70
2023-11-29T11:43:48.281Z,9.10
2023-11-29T11:46:20.920Z,10.00
2023-11-29T11:48:48.657Z,9.20
2023-11-29T11:51:20.111Z,9.20
2023-11-29T11:53:47.198Z,10.50
2023-11-29T11:56:21.984Z,11.40
2023-11-29T11:58:49.266Z,12.70
2023-11-29T12:01:18.586Z,12.30
2023-11-29T12:03:50.046Z,13.20
2023-11-29T12:06:18.043Z,11.40
2023-11-29T12:08:45.461Z,11.30
2023-11-29T12:11:12.887Z,11.80
2023-11-29T12:13:40.793Z,13.30
2023-11-29T12:16:16.594Z,12.60
2023-11-29T12:18:44.352Z,13.00
2023-11-29T12:21:13.835Z,13.50
2023-11-29T12:23:44.096Z,13.10
2023-11-29T12:26:16.270Z,12.60
2023-11-29T12:28:43.833Z,13.40
2023-11-29T12:31:13.877Z,14.30
2023-11-29T12:33:41.186Z,13.70
2023-11-29T12:36:11.242Z,15.00
2023-11-29T12:38:38.768Z,12.20
2023-11-29T12:41:06.244Z,12.30
2023-11-29T12:43:33.366Z,13.10
2023-11-29T12:46:00.479Z,13.50
2023-11-29T12:48:27.891Z,14.80
2023-11-29T12:50:58.710Z,15.00
2023-11-29T12:53:29.078Z,15.30
2023-11-29T12:55:56.127Z,13.20
2023-11-29T12:58:23.173Z,13.20
2023-11-29T13:00:50.184Z,12.70
2023-11-29T13:03:19.898Z,12.50
2023-11-29T13:05:54.633Z,11.90
2023-11-29T13:08:21.865Z,12.20
2023-11-29T13:10:49.209Z,12.90
2023-11-29T13:13:16.192Z,12.60
2023-11-29T13:15:43.218Z,12.50
2023-11-29T13:18:10.323Z,13.10
2023-11-29T13:20:39.946Z,13.50
2023-11-29T13:23:06.907Z,13.40
2023-11-29T13:25:33.906Z,13.50
2023-11-29T13:28:00.998Z,14.10
2023-11-29T13:30:27.969Z,12.70
2023-11-29T13:32:55.101Z,12.80
2023-11-29T13:35:22.124Z,12.00
2023-11-29T13:37:49.131Z,12.20
2023-11-29T13:40:16.410Z,12.10
2023-11-29T13:42:43.939Z,11.40
2023-11-29T13:45:14.868Z,12.40
2023-11-29T13:47:42.204Z,12.70
2023-11-29T13:50:10.178Z,12.70
2023-11-29T13:52:37.831Z,11.70
2023-11-29T13:55:12.538Z,11.20
2023-11-29T13:57:39.883Z,9.70
2023-11-29T14:00:10.681Z,9.60
2023-11-29T14:02:38.635Z,10.30
2023-11-29T14:05:06.938Z,10.40
2023-11-29T14:07:35.408Z,10.40
2023-11-29T14:10:03.050Z,9.50
2023-11-29T14:12:30.281Z,7.80
2023-11-29T14:14:57.773Z,7.30
2023-11-29T14:17:25.196Z,6.10
2023-11-29T14:19:57.356Z,6.00
2023-11-29T14:22:24.826Z,6.00
2023-11-29T14:24:57.335Z,5.40
2023-11-29T14:27:27.199Z,5.30
2023-11-29T14:30:21.421Z,4.90
2023-11-29T14:32:48.846Z,4.80
2023-11-29T14:35:16.686Z,4.70
2023-11-29T14:37:48.311Z,4.60
2023-11-29T14:40:17.624Z,4.80
2023-11-29T14:42:48.153Z,4.50
2023-11-29T14:45:15.529Z,4.70
2023-11-29T14:47:48.955Z,4.50
2023-11-29T14:50:25.000Z,4.40
2023-11-29T14:52:53.522Z,4.40
2023-11-29T14:55:22.968Z,4.40
2023-11-29T14:57:53.181Z,4.40
2023-11-29T15:00:20.615Z,4.20
2023-11-29T15:02:47.785Z,3.80
2023-11-29T15:05:15.119Z,3.60
2023-11-29T15:07:42.474Z,3.70
2023-11-29T15:10:12.092Z,3.70
2023-11-29T15:12:39.386Z,3.60
2023-11-29T15:15:07.123Z,3.50
2023-11-29T15:17:38.686Z,3.60
2023-11-29T15:20:09.485Z,3.50
2023-11-29T15:22:36.733Z,3.40
2023-11-29T15:25:11.535Z,3.20
2023-11-29T15:27:44.891Z,3.10
2023-11-29T15:30:13.110Z,2.90
2023-11-29T15:32:40.671Z,2.90
2023-11-29T15:35:09.090Z,2.70
2023-11-29T15:37:36.451Z,2.70
2023-11-29T15:40:05.008Z,2.70
2023-11-29T15:42:32.051Z,2.60
2023-11-29T15:44:59.204Z,2.60
2023-11-29T15:47:30.081Z,2.40
2023-11-29T15:50:01.653Z,2.40
2023-11-29T15:52:30.191Z,2.30
2023-11-29T15:55:00.263Z,2.30
2023-11-29T15:57:28.704Z,2.00
2023-11-29T16:00:04.370Z,2.00
2023-11-29T16:02:35.259Z,2.10
2023-11-29T16:05:13.480Z,2.00
2023-11-29T16:07:41.445Z,2.00
2023-11-29T16:10:09.722Z,2.00
2023-11-29T16:12:36.928Z,2.00
2023-11-29T16:15:06.484Z,2.00
2023-11-29T16:17:36.147Z,1.90
2023-11-29T16:20:06.683Z,1.90
2023-11-29T16:22:33.749Z,1.80
2023-11-29T16:25:01.089Z,1.80
2023-11-29T16:27:35.972Z,1.70
2023-11-29T16:30:06.151Z,1.70
2023-11-29T16:32:34.088Z,1.70
2023-11-29T16:35:01.671Z,1.70
2023-11-29T16:37:30.432Z,1.60
2023-11-29T16:39:58.577Z,1.60
2023-11-29T16:42:26.054Z,1.60
2023-11-29T16:44:53.791Z,1.50
2023-11-29T16:47:23.338Z,1.50
2023-11-29T16:49:50.336Z,1.50
2023-11-29T16:52:17.394Z,1.40
2023-11-29T16:54:44.568Z,1.40
2023-11-29T16:57:11.786Z,1.30
2023-11-29T16:59:43.156Z,1.20
2023-11-29T17:02:10.476Z,1.20
2023-11-29T17:04:38.796Z,1.20
2023-11-29T17:07:09.015Z,1.10
2023-11-29T17:09:36.204Z,1.00
2023-11-29T17:12:03.479Z,0.90
2023-11-29T17:14:30.509Z,0.90
2023-11-29T17:16:59.796Z,0.90
2023-11-29T17:19:26.844Z,0.80
2023-11-29T17:21:54.129Z,0.90
2023-11-29T17:24:23.961Z,0.80
2023-11-29T17:26:51.555Z,0.70
2023-11-29T17:29:18.648Z,0.60
2023-11-29T17:31:45.644Z,0.60
2023-11-29T17:34:14.931Z,0.50
2023-11-29T17:36:45.013Z,0.50
2023-11-29T17:39:12.231Z,0.60
2023-11-29T17:41:39.418Z,0.50
2023-11-29T17:44:06.662Z,0.50
2023-11-29T17:46:35.971Z,0.40
2023-11-29T17:49:03.043Z,0.40
2023-11-29T17:51:30.067Z,0.30
2023-11-29T17:53:57.243Z,0.30
2023-11-29T17:56:32.186Z,0.40
2023-11-29T17:59:03.585Z,0.40
2023-11-29T18:01:30.671Z,0.40
2023-11-29T18:03:57.985Z,0.30
2023-11-29T18:06:25.448Z,0.10
2023-11-29T18:08:52.447Z,0.00
2023-11-29T18:11:19.493Z,0.10
2023-11-29T18:13:49.408Z,0.20
2023-11-29T18:16:16.498Z,0.20
2023-11-29T18:18:43.683Z,0.10
2023-11-29T18:21:14.305Z,0.00
2023-11-29T18:23:41.629Z,0.00
2023-11-29T18:26:08.700Z,0.00
2023-11-29T18:31:44.995Z,0.00
2023-11-29T18:34:22.510Z,0.00
2023-11-29T18:37:01.165Z,0.00
2023-11-29T18:39:31.371Z,0.00
2023-11-29T18:42:13.991Z,0.00
2023-11-29T18:44:48.378Z,0.00
2023-11-29T18:47:15.630Z,0.00
2023-11-29T18:49:46.049Z,-0.10
2023-11-29T18:52:13.223Z,-0.10
2023-11-29T18:54:41.388Z,-0.20
2023-11-29T18:57:08.655Z,-0.20
2023-11-29T18:59:53.628Z,-0.20
2023-11-29T19:02:23.468Z,-0.20
2023-11-29T19:04:53.068Z,-0.20
2023-11-29T19:07:38.377Z,-0.30
2023-11-29T19:11:00.966Z,-0.30
2023-11-29T19:13:40.553Z,-0.30
2023-11-29T19:16:23.207Z,-0.30
2023-11-29T19:18:57.733Z,-0.40
2023-11-29T19:21:30.567Z,-0.40
2023-11-29T19:24:00.513Z,-0.40
2023-11-29T19:26:36.654Z,-0.30
2023-11-29T19:29:10.200Z,-0.30
2023-11-29T19:31:37.626Z,-0.30
2023-11-29T19:34:07.249Z,-0.30
2023-11-29T19:36:42.661Z,-0.40
2023-11-29T19:39:19.872Z,-0.40
2023-11-29T19:41:56.107Z,-0.40
2023-11-29T19:44:35.830Z,-0.50
2023-11-29T19:47:13.110Z,-0.60
2023-11-29T19:49:46.383Z,-0.60
2023-11-29T19:52:18.531Z,-0.50
2023-11-29T19:54:51.556Z,-0.50
2023-11-29T19:57:28.805Z,-0.50
2023-11-29T19:59:59.062Z,-0.50
2023-11-29T20:02:29.921Z,-0.60
2023-11-29T20:05:01.885Z,-0.60
2023-11-29T20:07:37.039Z,-0.60
2023-11-29T20:10:10.113Z,-0.50
2023-11-29T20:12:37.872Z,-0.60
2023-11-29T20:15:10.867Z,-0.60
2023-11-29T20:17:38.450Z,-0.60
2023-11-29T20:20:15.261Z,-0.60
2023-11-29T20:22:48.227Z,-0.60
2023-11-29T20:25:17.694Z,-0.60
2023-11-29T20:27:45.065Z,-0.60
2023-11-29T20:30:13.060Z,-0.60
2023-11-29T20:32:46.319Z,-0.60
2023-11-29T20:35:25.768Z,-0.60
2023-11-29T20:38:03.393Z,-0.60
2023-11-29T20:40:36.827Z,-0.70
2023-11-29T20:43:11.860Z,-0.60
2023-11-29T20:45:39.092Z,-0.70
2023-11-29T20:48:06.678Z,-0.70
2023-11-29T20:50:33.743Z,-0.60
2023-11-29T20:53:10.037Z,-0.60
2023-11-29T20:55:47.852Z,-0.60
2023-11-29T20:58:17.006Z,-0.70
2023-11-29T21:00:47.183Z,-0.60
2023-11-29T21:03:15.053Z,-0.60
2023-11-29T21:05:42.685Z,-0.70
2023-11-29T21:08:10.206Z,-0.70
2023-11-29T21:10:37.290Z,-0.70
2023-11-29T21:13:04.502Z,-0.70
2023-11-29T21:15:31.737Z,-0.70
2023-11-29T21:17:59.114Z,-0.80
2023-11-29T21:20:26.223Z,-0.70
2023-11-29T21:22:53.242Z,-0.70
2023-11-29T21:25:22.384Z,-0.70
2023-11-29T21:27:49.306Z,-0.60
2023-11-29T21:30:16.813Z,-0.60
2023-11-29T21:32:44.100Z,-0.60
2023-11-29T21:35:11.183Z,-0.60
2023-11-29T21:37:38.153Z,-0.60
2023-11-29T21:40:06.089Z,-0.60
2023-11-29T21:42:33.109Z,-0.60
2023-11-29T21:45:00.365Z,-0.50
2023-11-29T21:47:27.632Z,-0.60
2023-11-29T21:49:56.041Z,-0.60
2023-11-29T21:52:25.637Z,-0.60
2023-11-29T21:54:58.107Z,-0.50
2023-11-29T21:57:25.301Z,-0.50
2023-11-29T21:59:55.352Z,-0.50
2023-11-29T22:02:22.454Z,-0.50
2023-11-29T22:04:50.752Z,-0.60
2023-11-29T22:07:18.382Z,-0.60
2023-11-29T22:09:45.466Z,-0.60
2023-11-29T22:12:16.350Z,-0.60
2023-11-29T22:14:47.421Z,-0.60
2023-11-29T22:17:15.163Z,-0.50
2023-11-29T22:19:42.450Z,-0.60
2023-11-29T22:22:09.350Z,-0.50
2023-11-29T22:24:36.500Z,-0.50
2023-11-29T22:27:04.258Z,-0.50
2023-11-29T22:29:31.374Z,-0.60
2023-11-29T22:31:58.638Z,-0.50
2023-11-29T22:34:25.610Z,-0.50
2023-11-29T22:36:53.966Z,-0.60
2023-11-29T22:39:21.098Z,-0.50
2023-11-29T22:41:51.604Z,-0.50
2023-11-29T22:44:18.958Z,-0.50
2023-11-29T22:46:46.075Z,-0.50
2023-11-29T22:49:13.296Z,-0.50
2023-11-29T22:51:40.441Z,-0.40
2023-11-29T22:54:07.596Z,-0.50
2023-11-29T22:56:37.885Z,-0.40
2023-11-29T22:59:06.750Z,-0.40
2023-11-29T23:01:34.758Z,-0.50
2023-11-29T23:04:03.674Z,-0.50
2023-11-29T23:06:32.319Z,-0.40
2023-11-29T23:08:59.673Z,-0.40
2023-11-29T23:11:26.803Z,-0.50
2023-11-29T23:13:53.810Z,-0.40
2023-11-29T23:16:21.157Z,-0.40
2023-11-29T23:18:49.015Z,-0.40
2023-11-29T23:21:16.580Z,-0.40
2023-11-29T23:23:45.084Z,-0.30
2023-11-29T23:26:13.853Z,-0.40
2023-11-29T23:28:40.842Z,-0.40
2023-11-29T23:31:09.202Z,-0.40
2023-11-29T23:33:36.370Z,-0.40
2023-11-29T23:36:05.273Z,-0.40
2023-11-29T23:38:34.341Z,-0.30
2023-11-29T23:41:01.260Z,-0.30
2023-11-29T23:43:28.222Z,-0.30
2023-11-29T23:45:55.190Z,-0.30
2023-11-29T23:48:22.293Z,-0.30
2023-11-29T23:50:50.534Z,-0.30
2023-11-29T23:53:20.008Z,-0.30
2023-11-29T23:55:48.015Z,-0.30
2023-11-29T23:58:15.122Z,-0.40
